Time;durP1;ratioP1;P1;durP2;ratioP2;P2;SDS_P1;SDS_P2;PMS_P1;PMS_P2;Temp;Humidity;BMP_temperature;BMP_pressure;BME280_temperature;BME280_humidity;BME280_pressure;Samples;Min_cycle;Max_cycle;Signal;HPM_P1;HPM_P2
2022/11/14 00:04:56;;;;;;;17.7;24.1;;;;;;;6.8;89.4;99930;;;;
2022/11/14 00:15:56;;;;;;;17.7;24.1;;;;;;;6.7;89.6;99920;;;;
2022/11/14 00:26:56;;;;;;;17.9;25;;;;;;;6.7;89.9;99920;;;;
2022/11/14 00:37:56;;;;;;;17.9;25;;;;;;;6.5;90.5;99920;;;;
2022/11/14 00:47:56;;;;;;;17.9;25;;;;;;;6.4;90.8;99920;;;;
2022/11/14 00:57:56;;;;;;;13.9;20.4;;;;;;;6.4;90.8;99920;;;;
2022/11/14 01:08:56;;;;;;;13.9;20.4;;;;;;;6.5;90.6;99910;;;;
2022/11/14 01:18:56;;;;;;;13.9;20.4;;;;;;;6.5;90.7;99900;;;;
2022/11/14 01:29:56;;;;;;;11.9;16.9;;;;;;;6.4;90.4;99890;;;;
2022/11/14 01:40:56;;;;;;;11.9;16.9;;;;;;;6.2;90.5;99880;;;;
2022/11/14 01:50:56;;;;;;;11.9;16.9;;;;;;;6.1;90.8;99880;;;;
2022/11/14 02:01:56;;;;;;;9.1;14.5;;;;;;;6;91;99870;;;;
2022/11/14 02:11:56;;;;;;;9.1;14.5;;;;;;;6.1;91.2;99860;;;;
2022/11/14 02:22:56;;;;;;;9.1;14.5;;;;;;;6.1;91.4;99870;;;;
2022/11/14 02:32:56;;;;;;;10.2;14.4;;;;;;;6.1;91.5;99850;;;;
2022/11/14 02:43:56;;;;;;;10.2;14.4;;;;;;;6.1;91.5;99840;;;;
2022/11/14 02:53:56;;;;;;;10.2;14.4;;;;;;;6;91.6;99830;;;;
2022/11/14 03:04:56;;;;;;;9.3;12.8;;;;;;;6;91.7;99830;;;;
2022/11/14 03:15:56;;;;;;;9.3;12.8;;;;;;;5.8;91.7;99830;;;;
2022/11/14 03:26:56;;;;;;;9.6;13;;;;;;;5.8;92.1;99830;;;;
2022/11/14 03:37:56;;;;;;;9.6;13;;;;;;;5.9;92.1;99830;;;;
2022/11/14 03:47:56;;;;;;;9.6;13;;;;;;;5.7;92.4;99820;;;;
2022/11/14 03:57:56;;;;;;;8.5;14;;;;;;;5.8;92.5;99820;;;;
2022/11/14 04:08:56;;;;;;;8.5;14;;;;;;;5.7;92.6;99810;;;;
2022/11/14 04:19:56;;;;;;;8.5;14;;;;;;;5.8;92.6;99800;;;;
2022/11/14 04:29:56;;;;;;;7.9;12.4;;;;;;;5.9;92.6;99800;;;;
2022/11/14 04:39:59;;;;;;;7.9;12.4;;;;;;;5.9;92.6;99800;;;;
2022/11/14 04:49:56;;;;;;;7.9;12.4;;;;;;;5.8;92.4;99800;;;;
2022/11/14 04:59:56;;;;;;;9.8;15.1;;;;;;;5.9;92.1;99770;;;;
2022/11/14 05:09:56;;;;;;;9.8;15.1;;;;;;;6;91.9;99770;;;;
2022/11/14 05:20:56;;;;;;;9.8;15.1;;;;;;;5.8;91.9;99770;;;;
2022/11/14 05:30:56;;;;;;;12.4;18.8;;;;;;;5.8;92.2;99770;;;;
2022/11/14 05:40:56;;;;;;;12.4;18.8;;;;;;;5.8;92.2;99780;;;;
2022/11/14 05:51:56;;;;;;;12.4;18.8;;;;;;;6;92.1;99770;;;;
2022/11/14 06:02:56;;;;;;;8;11.9;;;;;;;6;91.9;99770;;;;
2022/11/14 06:12:56;;;;;;;8;11.9;;;;;;;6.1;91.9;99780;;;;
2022/11/14 06:23:56;;;;;;;8;11.9;;;;;;;6;91.6;99780;;;;
2022/11/14 06:34:56;;;;;;;8;14.6;;;;;;;5.9;91.7;99780;;;;
2022/11/14 06:44:56;;;;;;;8;14.6;;;;;;;6;91.8;99770;;;;
2022/11/14 06:54:56;;;;;;;8.6;12.3;;;;;;;5.7;92;99770;;;;
2022/11/14 07:05:56;;;;;;;8.6;12.3;;;;;;;6;92;99770;;;;
2022/11/14 07:15:56;;;;;;;8.6;12.3;;;;;;;6.2;91.8;99780;;;;
2022/11/14 07:26:56;;;;;;;8.5;12.9;;;;;;;6.3;90.8;99780;;;;
2022/11/14 07:37:56;;;;;;;8.5;12.9;;;;;;;6.2;90.3;99780;;;;
2022/11/14 07:48:56;;;;;;;8.5;12.9;;;;;;;6;89.9;99780;;;;
2022/11/14 07:59:56;;;;;;;7.9;10.9;;;;;;;6;90.2;99760;;;;
2022/11/14 08:09:56;;;;;;;7.9;10.9;;;;;;;6.1;90.3;99750;;;;
2022/11/14 08:20:56;;;;;;;7.9;10.9;;;;;;;6.2;89.8;99740;;;;
2022/11/14 08:31:56;;;;;;;10;13.6;;;;;;;6.6;88.9;99720;;;;
2022/11/14 08:41:56;;;;;;;10;13.6;;;;;;;6.9;88.1;99720;;;;
2022/11/14 08:52:56;;;;;;;10;13.6;;;;;;;6.8;87.5;99720;;;;
2022/11/14 09:03:56;;;;;;;10.8;14.1;;;;;;;6.8;87.8;99720;;;;
2022/11/14 09:13:56;;;;;;;10.8;14.1;;;;;;;7;87.3;99720;;;;
2022/11/14 09:23:56;;;;;;;12.6;14.3;;;;;;;7;87.4;99720;;;;
2022/11/14 09:34:56;;;;;;;12.6;14.3;;;;;;;7;87.1;99710;;;;
2022/11/14 09:44:56;;;;;;;12.6;14.3;;;;;;;7.2;86.8;99700;;;;
2022/11/14 09:55:56;;;;;;;14;18.5;;;;;;;7.4;86.9;99690;;;;
2022/11/14 10:06:56;;;;;;;14;18.5;;;;;;;7.6;87.2;99690;;;;
2022/11/14 10:17:56;;;;;;;14;18.5;;;;;;;7.7;85.8;99680;;;;
2022/11/14 10:28:56;;;;;;;15.9;19.1;;;;;;;7.7;85.4;99660;;;;
2022/11/14 10:39:56;;;;;;;15.9;19.1;;;;;;;7.8;85.5;99640;;;;
2022/11/14 10:49:56;;;;;;;15.9;19.1;;;;;;;7.5;85.7;99630;;;;
2022/11/14 11:00:56;;;;;;;15.9;20.4;;;;;;;7.2;86.1;99620;;;;
2022/11/14 11:11:56;;;;;;;15.9;20.4;;;;;;;7.3;86.6;99620;;;;
2022/11/14 11:21:56;;;;;;;15.9;20.4;;;;;;;7.3;86.6;99610;;;;
2022/11/14 11:32:56;;;;;;;15.2;20.8;;;;;;;7.3;86.1;99610;;;;
2022/11/14 11:43:56;;;;;;;15.2;20.8;;;;;;;7.3;85.7;99600;;;;
2022/11/14 11:53:56;;;;;;;16.6;21.5;;;;;;;7.1;85.8;99600;;;;
2022/11/14 12:04:56;;;;;;;16.6;21.5;;;;;;;7;86.5;99590;;;;
2022/11/14 12:14:58;;;;;;;16.6;21.5;;;;;;;6.9;86.4;99580;;;;
2022/11/14 12:25:56;;;;;;;16.5;21.2;;;;;;;6.9;87.2;99570;;;;
2022/11/14 12:36:56;;;;;;;16.5;21.2;;;;;;;6.8;87.4;99560;;;;
2022/11/14 12:46:56;;;;;;;16.5;21.2;;;;;;;6.7;87.1;99550;;;;
2022/11/14 12:57:56;;;;;;;17.7;21;;;;;;;6.5;88.4;99540;;;;
2022/11/14 13:07:56;;;;;;;17.7;21;;;;;;;6.6;88.4;99530;;;;
2022/11/14 13:29:56;;;;;;;19.5;24.2;;;;;;;6.3;89.1;99510;;;;
2022/11/14 13:39:56;;;;;;;19.5;24.2;;;;;;;6.3;90;99510;;;;
2022/11/14 13:49:56;;;;;;;19.5;24.2;;;;;;;6.3;90;99500;;;;
2022/11/14 14:00:56;;;;;;;19.3;26.8;;;;;;;6.3;90.2;99490;;;;
2022/11/14 14:10:56;;;;;;;19.3;26.8;;;;;;;6.2;90.4;99480;;;;
2022/11/14 14:20:56;;;;;;;19.3;26.8;;;;;;;6.1;90.3;99470;;;;
2022/11/14 14:30:56;;;;;;;17.1;26.1;;;;;;;6.1;90.8;99470;;;;
2022/11/14 14:41:56;;;;;;;17.1;26.1;;;;;;;6;91.5;99460;;;;
2022/11/14 14:51:56;;;;;;;17.1;26.1;;;;;;;5.9;92.2;99450;;;;
2022/11/14 15:01:56;;;;;;;21;26.2;;;;;;;6;92.3;99440;;;;
2022/11/14 15:11:57;;;;;;;21;26.2;;;;;;;5.9;92.5;99430;;;;
2022/11/14 15:21:56;;;;;;;21;26.2;;;;;;;6;92.4;99430;;;;
2022/11/14 15:32:56;;;;;;;21.4;26.9;;;;;;;5.9;92.5;99440;;;;
2022/11/14 15:44:00;;;;;;;21.4;26.9;;;;;;;6.2;92.3;99440;;;;
2022/11/14 15:54:56;;;;;;;19.7;26.2;;;;;;;6.3;92;99430;;;;
2022/11/14 16:05:56;;;;;;;19.7;26.2;;;;;;;6.1;91.8;99430;;;;
2022/11/14 16:16:56;;;;;;;19.7;26.2;;;;;;;6.1;91.8;99430;;;;
2022/11/14 16:27:56;;;;;;;24.1;33.5;;;;;;;6.1;92.2;99420;;;;
2022/11/14 16:38:56;;;;;;;24.1;33.5;;;;;;;6.1;92.1;99430;;;;
2022/11/14 16:48:56;;;;;;;24.1;33.5;;;;;;;6;92.3;99420;;;;
2022/11/14 16:58:56;;;;;;;21.2;29.2;;;;;;;5.9;92.3;99420;;;;
2022/11/14 17:08:56;;;;;;;21.2;29.2;;;;;;;6;92.4;99410;;;;
2022/11/14 17:18:56;;;;;;;21.2;29.2;;;;;;;6;92.5;99410;;;;
2022/11/14 17:29:56;;;;;;;23.4;32.6;;;;;;;6.1;92.2;99410;;;;
2022/11/14 17:39:56;;;;;;;23.4;32.6;;;;;;;6.1;92;99400;;;;
2022/11/14 17:50:56;;;;;;;23.4;32.6;;;;;;;6.2;91.9;99390;;;;
2022/11/14 18:00:57;;;;;;;21.5;28.3;;;;;;;6.1;91.9;99380;;;;
2022/11/14 18:11:56;;;;;;;21.5;28.3;;;;;;;6.1;92;99390;;;;
2022/11/14 18:22:56;;;;;;;21.3;31;;;;;;;6.1;91.9;99380;;;;
2022/11/14 18:32:56;;;;;;;21.3;31;;;;;;;6;92.2;99370;;;;
2022/11/14 18:42:56;;;;;;;21.3;31;;;;;;;5.8;92.7;99360;;;;
2022/11/14 18:53:58;;;;;;;17.9;25.5;;;;;;;5.8;92.7;99350;;;;
2022/11/14 19:03:56;;;;;;;17.9;25.5;;;;;;;5.9;92.7;99340;;;;
2022/11/14 19:14:56;;;;;;;17.9;25.5;;;;;;;6;92.4;99340;;;;
2022/11/14 19:24:57;;;;;;;18.3;27.7;;;;;;;5.8;92.4;99330;;;;
2022/11/14 19:35:56;;;;;;;18.3;27.7;;;;;;;5.8;92.6;99330;;;;
2022/11/14 19:45:57;;;;;;;18.3;27.7;;;;;;;5.8;92.4;99310;;;;
2022/11/14 19:55:56;;;;;;;24.7;33.7;;;;;;;5.8;92.4;99310;;;;
2022/11/14 20:06:56;;;;;;;24.7;33.7;;;;;;;5.9;92.4;99310;;;;
2022/11/14 20:16:56;;;;;;;24.7;33.7;;;;;;;5.7;92;99300;;;;
2022/11/14 20:26:56;;;;;;;21.2;32;;;;;;;5.7;92.2;99290;;;;
2022/11/14 20:36:56;;;;;;;21.2;32;;;;;;;5.8;92.1;99280;;;;
2022/11/14 20:47:56;;;;;;;21.2;32;;;;;;;5.6;92.1;99270;;;;
2022/11/14 20:57:56;;;;;;;16.2;23.9;;;;;;;5.6;92.2;99270;;;;
2022/11/14 21:08:56;;;;;;;16.2;23.9;;;;;;;5.7;92;99260;;;;
2022/11/14 21:19:56;;;;;;;16.2;23.9;;;;;;;5.5;92;99250;;;;
2022/11/14 21:29:56;;;;;;;13.8;22.7;;;;;;;5.5;91.9;99250;;;;
2022/11/14 21:40:56;;;;;;;13.8;22.7;;;;;;;5.6;92.1;99230;;;;
2022/11/14 21:51:56;;;;;;;13.8;22.7;;;;;;;5.6;92;99230;;;;
2022/11/14 22:12:56;;;;;;;15.5;23.2;;;;;;;5.8;91.6;99230;;;;
2022/11/14 22:23:56;;;;;;;16.4;25.3;;;;;;;5.5;91.4;99220;;;;
2022/11/14 22:34:56;;;;;;;16.4;25.3;;;;;;;5.7;91.3;99210;;;;
2022/11/14 22:45:56;;;;;;;16.4;25.3;;;;;;;5.8;91.2;99210;;;;
2022/11/14 22:56:56;;;;;;;13.4;19.7;;;;;;;5.7;90.9;99200;;;;
2022/11/14 23:06:56;;;;;;;13.4;19.7;;;;;;;5.7;90.8;99200;;;;
2022/11/14 23:17:56;;;;;;;13.4;19.7;;;;;;;5.6;90.6;99190;;;;
2022/11/14 23:28:56;;;;;;;13.4;22.4;;;;;;;5.7;90.6;99170;;;;
2022/11/14 23:38:56;;;;;;;13.4;22.4;;;;;;;5.5;90.7;99160;;;;
2022/11/14 23:48:56;;;;;;;13.4;22.4;;;;;;;5.7;90.4;99150;;;;
2022/11/14 23:59:56;;;;;;;13.4;18.7;;;;;;;5.8;90.2;99150;;;;
